aviador You're here:

RKTN Decoded Metar

TAEGU in KOREA
Report Time2018-01-22 11:15:00
UTC Time2018-01-22 11:55:35
Flight Rules vfr VFR
Wind290° at 06 kt
W.Decomp.*RWY 31: 5.8 kt HW 1.3 kt LCW
W.Rank290° ranks 6
Current wind is below 290° avg. (6.1)
Visibility9999 m
Phenomena:Light Rain
Clouds:Few 030 Hf
Overcast 050 Hf
Expected CloudBase > 4,000 ft AGL from Temp-Dew spread
Ceiling5,000 ft
Temp08°C (ISA -7)
Dew Point-2°C (50% RH)
AAT3.6°C
QNH1011 hPa
Density Alt-554 ft
Elevation115 ft
Report Wrong Elevation
Raw Report
SPECI RKTN 221115Z 29006KT 9999 -RA FEW030 OVC050 08/M02 Q1011 NOSIG=

Extra information for RKTN:More info

Metar Taf Metar & Taf Last 4 Metars F.Rules Stats Wind Profile Meteogram Temp Stats Airport Information Weather charts Add Link Nearby VenuesMetar ALERT Operation Metar Decoded Social comments